New York, New York
Traffic Map
Current Weather Conditions
New York, New York
Overcast
Overcast
19°
Feels Like: 19°
Wind Chill: 19° Ceiling: 1700
Heat Index: 19° Visibility: 10mi
Dew Point: 16° Wind: 0mph
Humidity: 84% Direction: ° ()
Pressure: 29.87in Gusts: 0mph
Raw Report DataKNYC 240151Z AUTO 00000KT 10SM FEW011 OVC017 19/16 A2987 RMK AO2 SLP105 T01890161 $
Traffic Incident Summary
Active as of:
Severity:
Category:
InformationThere was an issue retrieving the traffic information for this location. Please try a different location or try again shortly.
Advertisements